createdAt,value
2019-01-04T00:00:23.587Z,23.20
2019-01-04T00:02:52.303Z,22.37
2019-01-04T00:05:20.782Z,23.00
2019-01-04T00:07:49.221Z,22.73
2019-01-04T00:10:18.022Z,22.73
2019-01-04T00:12:46.503Z,23.10
2019-01-04T00:15:15.028Z,17.80
2019-01-04T00:17:43.784Z,22.23
2019-01-04T00:20:12.239Z,18.93
2019-01-04T00:22:40.963Z,21.27
2019-01-04T00:25:09.466Z,19.00
2019-01-04T00:27:38.244Z,15.97
2019-01-04T00:30:10.015Z,21.97
2019-01-04T00:32:38.499Z,19.20
2019-01-04T00:35:07.790Z,15.13
2019-01-04T00:37:36.495Z,22.37
2019-01-04T00:40:07.538Z,16.10
2019-01-04T00:42:35.986Z,15.33
2019-01-04T00:45:06.245Z,21.37
2019-01-04T00:47:34.731Z,19.73
2019-01-04T00:50:04.404Z,17.10
2019-01-04T00:52:32.852Z,16.50
2019-01-04T00:55:04.359Z,18.10
2019-01-04T00:57:45.227Z,21.17
2019-01-04T01:00:48.178Z,19.00
2019-01-04T01:03:36.366Z,23.20
2019-01-04T01:06:13.886Z,23.63
2019-01-04T01:09:07.576Z,24.47
2019-01-04T01:11:57.183Z,24.17
2019-01-04T01:14:43.271Z,23.37
2019-01-04T01:17:26.958Z,25.17
2019-01-04T01:20:26.871Z,26.20
2019-01-04T01:23:04.256Z,20.10
2019-01-04T01:25:53.927Z,23.83
2019-01-04T01:28:37.385Z,26.40
2019-01-04T01:31:20.734Z,22.93
2019-01-04T01:34:00.761Z,19.73
2019-01-04T01:36:47.156Z,25.60
2019-01-04T01:39:47.379Z,22.93
2019-01-04T01:42:27.908Z,26.53
2019-01-04T01:45:23.728Z,22.10
2019-01-04T01:47:52.431Z,22.30
2019-01-04T01:50:29.727Z,21.10
2019-01-04T01:52:58.425Z,19.27
2019-01-04T01:55:26.864Z,23.47
2019-01-04T01:57:55.563Z,19.40
2019-01-04T02:00:24.012Z,20.20
2019-01-04T02:02:52.466Z,17.57
2019-01-04T02:05:20.924Z,18.53
2019-01-04T02:07:49.627Z,19.03
2019-01-04T02:10:18.134Z,20.20
2019-01-04T02:12:46.854Z,22.63
2019-01-04T02:15:15.315Z,22.70
2019-01-04T02:17:44.029Z,21.00
2019-01-04T02:20:12.480Z,20.40
2019-01-04T02:22:40.986Z,26.13
2019-01-04T02:25:09.717Z,18.83
2019-01-04T02:27:38.460Z,21.97
2019-01-04T02:30:07.847Z,31.53
2019-01-04T02:32:36.342Z,27.20
2019-01-04T02:35:05.127Z,25.63
2019-01-04T02:37:33.556Z,23.83
2019-01-04T02:40:02.252Z,22.73
2019-01-04T02:42:30.986Z,22.13
2019-01-04T02:44:59.439Z,19.73
2019-01-04T02:47:27.885Z,22.03
2019-01-04T02:49:56.322Z,28.30
2019-01-04T02:52:24.778Z,19.77
2019-01-04T02:54:53.220Z,24.40
2019-01-04T02:57:21.975Z,27.20
2019-01-04T02:59:50.417Z,27.13
2019-01-04T03:02:18.868Z,21.20
2019-01-04T03:04:47.563Z,18.90
2019-01-04T03:07:16.319Z,24.93
2019-01-04T03:09:44.769Z,25.87
2019-01-04T03:12:13.483Z,18.83
2019-01-04T03:14:42.183Z,20.80
2019-01-04T03:17:10.912Z,22.07
2019-01-04T03:19:39.644Z,25.23
2019-01-04T03:22:08.372Z,19.07
2019-01-04T03:24:36.803Z,19.10
2019-01-04T03:27:05.281Z,22.67
2019-01-04T03:29:34.027Z,27.87
2019-01-04T03:32:02.508Z,27.97
2019-01-04T03:34:31.001Z,28.07
2019-01-04T03:36:59.451Z,19.60
2019-01-04T03:39:27.902Z,22.43
2019-01-04T03:41:56.596Z,19.20
2019-01-04T03:44:25.053Z,22.43
2019-01-04T03:46:53.497Z,26.77
2019-01-04T03:49:21.953Z,21.70
2019-01-04T03:51:50.386Z,21.40
2019-01-04T03:54:19.107Z,24.37
2019-01-04T03:56:47.797Z,22.57
2019-01-04T03:59:16.490Z,22.13
2019-01-04T04:01:45.197Z,28.73
2019-01-04T04:04:13.709Z,20.87
2019-01-04T04:06:42.218Z,21.70
2019-01-04T04:09:10.935Z,20.80
2019-01-04T04:11:39.375Z,22.80
2019-01-04T04:14:08.080Z,24.70
2019-01-04T04:16:36.591Z,23.47
2019-01-04T04:19:05.306Z,24.97
2019-01-04T04:21:33.736Z,28.07
2019-01-04T04:24:02.521Z,25.17
2019-01-04T04:26:30.988Z,26.10
2019-01-04T04:28:59.501Z,22.97
2019-01-04T04:31:27.966Z,23.87
2019-01-04T04:33:56.459Z,24.50
2019-01-04T04:36:24.893Z,22.20
2019-01-04T04:38:53.379Z,24.60
2019-01-04T04:41:22.089Z,23.33
2019-01-04T04:43:50.550Z,24.50
2019-01-04T04:46:18.970Z,17.53
2019-01-04T04:48:47.409Z,22.53
2019-01-04T04:51:15.848Z,22.23
2019-01-04T04:53:44.302Z,18.80
2019-01-04T04:56:12.815Z,22.13
2019-01-04T04:58:41.508Z,18.03
2019-01-04T05:01:10.247Z,20.87
2019-01-04T05:03:38.704Z,19.47
2019-01-04T05:06:07.407Z,17.03
2019-01-04T05:08:35.847Z,22.33
2019-01-04T05:11:04.594Z,19.07
2019-01-04T05:13:33.085Z,18.93
2019-01-04T05:16:01.574Z,18.13
2019-01-04T05:18:30.046Z,22.30
2019-01-04T05:20:58.500Z,24.07
2019-01-04T05:23:26.945Z,24.07
2019-01-04T05:25:55.392Z,21.53
2019-01-04T05:28:23.833Z,23.30
2019-01-04T05:30:52.287Z,19.23
2019-01-04T05:33:20.753Z,24.03
2019-01-04T05:35:49.263Z,22.17
2019-01-04T05:38:17.983Z,20.80
2019-01-04T05:40:46.707Z,20.77
2019-01-04T05:43:15.122Z,20.33
2019-01-04T05:45:43.859Z,26.63
2019-01-04T05:48:12.296Z,30.73
2019-01-04T05:50:41.007Z,25.17
2019-01-04T05:53:09.714Z,17.90
2019-01-04T05:55:38.146Z,21.73
2019-01-04T05:58:06.864Z,22.93
2019-01-04T06:00:35.571Z,20.73
2019-01-04T06:03:04.260Z,21.33
2019-01-04T06:05:32.711Z,22.23
2019-01-04T06:08:01.424Z,19.03
2019-01-04T06:10:30.132Z,18.03
2019-01-04T06:12:58.880Z,21.10
2019-01-04T06:15:27.303Z,18.07
2019-01-04T06:17:56.041Z,21.73
2019-01-04T06:20:24.475Z,23.33
2019-01-04T06:22:53.213Z,17.63
2019-01-04T06:25:21.708Z,19.47
2019-01-04T06:27:50.407Z,18.63
2019-01-04T06:30:18.836Z,19.13
2019-01-04T06:32:47.296Z,21.87
2019-01-04T06:35:15.754Z,17.50
2019-01-04T06:37:44.507Z,22.37
2019-01-04T06:40:13.222Z,21.57
2019-01-04T06:42:41.679Z,24.60
2019-01-04T06:45:10.371Z,21.70
2019-01-04T06:47:38.941Z,20.23
2019-01-04T06:50:09.098Z,22.17
2019-01-04T06:52:37.799Z,24.90
2019-01-04T06:55:21.294Z,23.87
2019-01-04T06:57:49.718Z,21.70
2019-01-04T07:00:18.162Z,21.30
2019-01-04T07:02:46.872Z,22.50
2019-01-04T07:05:15.588Z,25.03
2019-01-04T07:07:44.090Z,23.93
2019-01-04T07:10:12.542Z,23.63
2019-01-04T07:12:40.991Z,25.60
2019-01-04T07:15:09.712Z,27.77
2019-01-04T07:17:38.442Z,21.00
2019-01-04T07:20:07.237Z,21.90
2019-01-04T07:22:35.719Z,24.37
2019-01-04T07:25:04.642Z,22.00
2019-01-04T07:27:33.347Z,21.30
2019-01-04T07:30:01.802Z,20.53
2019-01-04T07:32:30.307Z,24.40
2019-01-04T07:34:58.835Z,20.30
2019-01-04T07:37:27.266Z,20.60
2019-01-04T07:39:56.038Z,20.17
2019-01-04T07:42:24.484Z,21.17
2019-01-04T07:44:53.174Z,21.40
2019-01-04T07:47:21.618Z,21.97
2019-01-04T07:49:50.078Z,19.17
2019-01-04T07:52:18.511Z,20.17
2019-01-04T07:54:47.061Z,25.40
2019-01-04T07:57:15.571Z,21.57
2019-01-04T07:59:44.275Z,21.23
2019-01-04T08:02:30.303Z,24.47
2019-01-04T08:04:58.800Z,21.27
2019-01-04T08:07:27.235Z,21.67
2019-01-04T08:09:55.700Z,22.23
2019-01-04T08:12:24.127Z,24.80
2019-01-04T08:14:52.595Z,23.00
2019-01-04T08:17:21.278Z,26.63
2019-01-04T08:19:49.720Z,22.80
2019-01-04T08:22:18.430Z,23.23
2019-01-04T08:24:47.119Z,22.77
2019-01-04T08:27:15.991Z,22.77
2019-01-04T08:29:44.433Z,20.57
2019-01-04T08:32:12.984Z,24.40
2019-01-04T08:34:41.447Z,27.20
2019-01-04T08:37:09.900Z,24.97
2019-01-04T08:39:38.349Z,26.43
2019-01-04T08:42:06.799Z,21.27
2019-01-04T08:44:35.592Z,21.70
2019-01-04T08:47:04.117Z,21.90
2019-01-04T08:49:32.668Z,24.63
2019-01-04T08:52:01.420Z,17.57
2019-01-04T08:54:30.123Z,21.93
2019-01-04T08:56:58.853Z,20.60
2019-01-04T08:59:27.597Z,20.87
2019-01-04T09:01:56.534Z,20.67
2019-01-04T09:04:25.382Z,17.30
2019-01-04T09:06:54.289Z,16.07
2019-01-04T09:09:22.762Z,19.10
2019-01-04T09:11:51.535Z,17.30
2019-01-04T09:14:19.969Z,17.40
2019-01-04T09:16:48.816Z,17.90
2019-01-04T09:19:17.244Z,20.50
2019-01-04T09:21:45.979Z,16.10
2019-01-04T09:24:14.450Z,18.73
2019-01-04T09:26:43.175Z,20.90
2019-01-04T09:29:11.661Z,16.37
2019-01-04T09:31:40.220Z,16.73
2019-01-04T09:34:08.710Z,15.50
2019-01-04T09:36:37.161Z,15.60
2019-01-04T09:39:07.075Z,17.63
2019-01-04T09:41:36.981Z,20.60
2019-01-04T09:44:05.687Z,16.73
2019-01-04T09:46:34.153Z,15.80
2019-01-04T09:49:02.952Z,16.93
2019-01-04T09:51:31.796Z,15.63
2019-01-04T09:54:00.292Z,17.03
2019-01-04T09:56:29.019Z,16.67
2019-01-04T09:58:57.768Z,20.63
2019-01-04T10:01:26.203Z,16.97
2019-01-04T10:03:54.715Z,15.60
2019-01-04T10:06:23.197Z,14.73
2019-01-04T10:08:52.056Z,19.00
2019-01-04T10:11:20.538Z,15.10
2019-01-04T10:13:49.021Z,13.80
2019-01-04T10:16:17.779Z,13.80
2019-01-04T10:18:46.226Z,18.07
2019-01-04T10:21:14.955Z,17.43
2019-01-04T10:23:43.418Z,17.87
2019-01-04T10:26:11.856Z,13.97
2019-01-04T10:28:40.600Z,12.57
2019-01-04T10:31:09.119Z,12.53
2019-01-04T10:33:37.875Z,12.37
2019-01-04T10:36:06.339Z,12.63
2019-01-04T10:38:34.880Z,12.37
2019-01-04T10:41:03.567Z,11.87
2019-01-04T10:43:32.314Z,11.70
2019-01-04T10:46:00.757Z,9.27
2019-01-04T10:48:29.483Z,7.37
2019-01-04T10:50:57.982Z,11.77
2019-01-04T10:53:26.700Z,11.27
2019-01-04T10:55:55.582Z,9.67
2019-01-04T10:58:24.075Z,7.73
2019-01-04T11:00:52.808Z,11.53
2019-01-04T11:03:21.320Z,8.17
2019-01-04T11:05:49.848Z,11.07
2019-01-04T11:08:18.434Z,8.47
2019-01-04T11:10:46.923Z,8.73
2019-01-04T11:13:15.679Z,12.40
2019-01-04T11:15:44.143Z,10.97
2019-01-04T11:18:12.580Z,10.13
2019-01-04T11:20:42.778Z,14.53
2019-01-04T11:23:35.049Z,14.47
2019-01-04T11:26:12.483Z,10.20
2019-01-04T11:28:53.046Z,7.93
2019-01-04T11:31:30.473Z,10.30
2019-01-04T11:34:14.429Z,10.23
2019-01-04T11:37:05.559Z,12.77
2019-01-04T11:39:40.047Z,8.97
2019-01-04T11:42:35.418Z,11.10
2019-01-04T11:45:26.233Z,11.80
2019-01-04T11:48:01.056Z,12.03
2019-01-04T11:50:38.304Z,10.53
2019-01-04T11:53:10.216Z,9.83
2019-01-04T11:55:39.305Z,14.60
2019-01-04T11:58:08.351Z,17.90
2019-01-04T12:00:37.432Z,20.60
2019-01-04T12:03:06.036Z,18.63
2019-01-04T12:05:34.841Z,15.87
2019-01-04T12:08:03.701Z,16.33
2019-01-04T12:10:32.218Z,17.17
2019-01-04T12:13:01.044Z,17.23
2019-01-04T12:15:29.563Z,16.40
2019-01-04T12:17:58.039Z,17.30
2019-01-04T12:20:26.541Z,17.77
2019-01-04T12:22:55.323Z,13.07
2019-01-04T12:25:24.449Z,15.77
2019-01-04T12:27:53.059Z,23.73
2019-01-04T12:30:22.150Z,18.60
2019-01-04T12:32:51.185Z,16.17
2019-01-04T12:35:20.134Z,16.33
2019-01-04T12:37:48.852Z,22.20
2019-01-04T12:40:17.743Z,19.27
2019-01-04T12:42:46.503Z,18.63
2019-01-04T12:45:15.481Z,20.03
2019-01-04T12:47:44.369Z,22.03
2019-01-04T12:50:13.203Z,22.30
2019-01-04T12:52:41.717Z,27.23
2019-01-04T12:55:10.712Z,18.57
2019-01-04T12:57:39.439Z,21.43
2019-01-04T13:00:11.309Z,19.67
2019-01-04T13:02:40.386Z,21.93
2019-01-04T13:05:09.467Z,19.03
2019-01-04T13:07:38.536Z,18.90
2019-01-04T13:10:08.048Z,23.63
2019-01-04T13:12:37.037Z,21.40
2019-01-04T13:15:06.929Z,20.20
2019-01-04T13:17:35.683Z,24.10
2019-01-04T13:20:04.644Z,21.40
2019-01-04T13:22:33.162Z,19.83
2019-01-04T13:25:01.611Z,24.10
2019-01-04T13:27:30.343Z,20.63
2019-01-04T13:29:59.137Z,19.90
2019-01-04T13:32:27.932Z,27.13
2019-01-04T13:34:56.907Z,23.63
2019-01-04T13:37:25.424Z,28.33
2019-01-04T13:39:54.580Z,29.27
2019-01-04T13:42:23.130Z,26.40
2019-01-04T13:44:52.334Z,23.53
2019-01-04T13:47:21.404Z,24.97
2019-01-04T13:49:50.656Z,25.80
2019-01-04T13:52:19.399Z,30.03
2019-01-04T13:54:48.446Z,33.87
2019-01-04T13:57:17.090Z,30.40
2019-01-04T13:59:45.974Z,32.50
2019-01-04T14:02:15.594Z,32.17
2019-01-04T14:04:44.280Z,30.00
2019-01-04T14:07:13.065Z,31.97
2019-01-04T14:09:42.214Z,35.40
2019-01-04T14:12:11.088Z,32.50
2019-01-04T14:14:39.710Z,30.83
2019-01-04T14:17:08.391Z,32.43
2019-01-04T14:19:37.329Z,35.13
2019-01-04T14:22:06.470Z,37.50
2019-01-04T14:24:35.447Z,40.63
2019-01-04T14:27:04.202Z,35.87
2019-01-04T14:29:33.370Z,34.43
2019-01-04T14:32:02.167Z,39.30
2019-01-04T14:34:31.308Z,35.50
2019-01-04T14:37:00.095Z,36.53
2019-01-04T14:39:28.653Z,38.57
2019-01-04T14:41:57.486Z,32.67
2019-01-04T14:44:26.625Z,42.23
2019-01-04T14:46:55.776Z,38.03
2019-01-04T14:49:26.612Z,37.30
2019-01-04T14:51:55.812Z,43.27
2019-01-04T14:54:24.330Z,36.37
2019-01-04T14:56:53.137Z,38.10
2019-01-04T14:59:21.873Z,40.23
2019-01-04T15:01:50.659Z,39.30
2019-01-04T15:04:19.741Z,35.17
2019-01-04T15:06:48.395Z,38.00
2019-01-04T15:09:17.141Z,38.67
2019-01-04T15:11:45.914Z,36.80
2019-01-04T15:14:15.068Z,33.60
2019-01-04T15:16:43.881Z,35.43
2019-01-04T15:19:12.348Z,45.03
2019-01-04T15:21:40.816Z,39.33
2019-01-04T15:24:09.419Z,35.73
2019-01-04T15:26:38.350Z,37.87
2019-01-04T15:29:07.236Z,34.93
2019-01-04T15:31:35.732Z,41.30
2019-01-04T15:34:04.284Z,35.40
2019-01-04T15:36:32.792Z,38.23
2019-01-04T15:39:01.229Z,39.30
2019-01-04T15:41:29.786Z,37.60
2019-01-04T15:43:58.227Z,32.47
2019-01-04T15:46:27.002Z,40.43
2019-01-04T15:48:55.534Z,34.53
2019-01-04T15:51:24.055Z,38.00
2019-01-04T15:53:53.245Z,36.20
2019-01-04T15:56:22.203Z,32.63
2019-01-04T15:58:50.996Z,35.30
2019-01-04T16:01:19.528Z,35.77
2019-01-04T16:03:48.174Z,28.80
2019-01-04T16:06:16.969Z,39.10
2019-01-04T16:08:45.977Z,35.47
2019-01-04T16:11:14.723Z,35.30
2019-01-04T16:13:43.894Z,36.33
2019-01-04T16:16:13.047Z,30.20
2019-01-04T16:18:42.236Z,31.63
2019-01-04T16:21:11.224Z,29.87
2019-01-04T16:23:39.790Z,30.73
2019-01-04T16:26:08.319Z,30.10
2019-01-04T16:28:37.301Z,35.90
2019-01-04T16:31:05.876Z,31.90
2019-01-04T16:33:34.618Z,30.10
2019-01-04T16:36:03.168Z,30.37
2019-01-04T16:38:31.686Z,33.07
2019-01-04T16:41:00.295Z,27.37
2019-01-04T16:43:29.064Z,34.20
2019-01-04T16:45:58.251Z,35.70
2019-01-04T16:48:26.783Z,27.37
2019-01-04T16:50:55.346Z,24.60
2019-01-04T16:53:24.113Z,26.57
2019-01-04T16:55:53.317Z,28.57
2019-01-04T16:58:22.460Z,27.83
2019-01-04T17:00:51.038Z,28.93
2019-01-04T17:03:20.087Z,26.33
2019-01-04T17:05:48.629Z,30.17
2019-01-04T17:08:17.285Z,26.10
2019-01-04T17:10:46.053Z,28.70
2019-01-04T17:13:15.221Z,35.00
2019-01-04T17:15:44.037Z,33.00
2019-01-04T17:18:12.768Z,32.97
2019-01-04T17:20:41.739Z,30.80
2019-01-04T17:23:10.539Z,32.20
2019-01-04T17:25:39.688Z,33.40
2019-01-04T17:28:08.476Z,32.83
2019-01-04T17:30:37.232Z,35.47
2019-01-04T17:33:05.769Z,34.73
2019-01-04T17:35:34.242Z,30.50
2019-01-04T17:38:03.383Z,31.50
2019-01-04T17:40:32.413Z,34.17
2019-01-04T17:43:01.154Z,33.20
2019-01-04T17:45:29.883Z,30.37
2019-01-04T17:47:58.475Z,36.50
2019-01-04T17:50:27.244Z,30.50
2019-01-04T17:52:56.063Z,29.80
2019-01-04T17:55:25.184Z,35.73
2019-01-04T17:57:53.856Z,37.87
2019-01-04T18:00:23.451Z,36.30
2019-01-04T18:02:52.279Z,38.17
2019-01-04T18:05:21.391Z,37.83
2019-01-04T18:07:50.475Z,49.50
2019-01-04T18:10:19.388Z,45.00
2019-01-04T18:12:48.565Z,40.90
2019-01-04T18:15:17.756Z,39.13
2019-01-04T18:17:46.848Z,41.30
2019-01-04T18:20:15.831Z,40.97
2019-01-04T18:22:44.345Z,39.27
2019-01-04T18:25:12.982Z,36.20
2019-01-04T18:27:42.135Z,43.77
2019-01-04T18:30:11.030Z,41.33
2019-01-04T18:32:40.130Z,44.07
2019-01-04T18:35:08.659Z,46.20
2019-01-04T18:37:37.864Z,44.53
2019-01-04T18:40:08.732Z,59.03
2019-01-04T18:42:37.522Z,57.63
2019-01-04T18:45:06.402Z,56.83
2019-01-04T18:47:39.323Z,50.03
2019-01-04T18:50:08.218Z,49.03
2019-01-04T18:52:36.890Z,57.73
2019-01-04T18:55:05.987Z,50.53
2019-01-04T18:57:34.940Z,47.37
2019-01-04T19:00:04.629Z,49.97
2019-01-04T19:02:33.708Z,49.43
2019-01-04T19:05:02.448Z,53.83
2019-01-04T19:07:31.221Z,50.60
2019-01-04T19:10:00.157Z,53.50
2019-01-04T19:12:28.845Z,55.33
2019-01-04T19:14:57.946Z,52.23
2019-01-04T19:17:26.699Z,61.00
2019-01-04T19:19:55.764Z,48.93
2019-01-04T19:22:24.251Z,53.83
2019-01-04T19:24:52.786Z,53.23
2019-01-04T19:27:21.277Z,45.23
2019-01-04T19:29:49.762Z,56.13
2019-01-04T19:32:18.496Z,61.10
2019-01-04T19:34:47.234Z,54.33
2019-01-04T19:37:15.919Z,62.63
2019-01-04T19:39:44.632Z,57.77
2019-01-04T19:42:13.095Z,57.87
2019-01-04T19:44:41.843Z,51.30
2019-01-04T19:47:10.633Z,53.83
2019-01-04T19:49:39.360Z,63.40
2019-01-04T19:52:08.082Z,61.67
2019-01-04T19:54:36.538Z,58.93
2019-01-04T19:57:04.986Z,60.30
2019-01-04T19:59:33.727Z,67.93
2019-01-04T20:02:02.207Z,55.87
2019-01-04T20:04:30.723Z,72.03
2019-01-04T20:07:45.895Z,69.23
2019-01-04T20:11:08.347Z,59.03
2019-01-04T20:14:00.515Z,64.60
2019-01-04T20:16:39.531Z,64.70
2019-01-04T20:19:10.110Z,65.60
2019-01-04T20:21:55.677Z,59.80
2019-01-04T20:24:29.039Z,62.47
2019-01-04T20:26:59.368Z,68.83
2019-01-04T20:29:45.561Z,66.27
2019-01-04T20:32:15.949Z,68.80
2019-01-04T20:34:46.289Z,70.83
2019-01-04T20:37:28.484Z,63.83
2019-01-04T20:40:04.426Z,64.00
2019-01-04T20:42:40.445Z,71.80
2019-01-04T20:45:25.732Z,69.17
2019-01-04T20:48:12.328Z,59.23
2019-01-04T20:51:00.539Z,63.30
2019-01-04T20:53:36.537Z,68.80
2019-01-04T20:56:12.500Z,63.33
2019-01-04T20:58:43.165Z,76.63
2019-01-04T21:01:16.740Z,65.90
2019-01-04T21:03:50.131Z,53.97
2019-01-04T21:06:23.090Z,57.03
2019-01-04T21:08:58.987Z,57.83
2019-01-04T21:11:46.265Z,61.37
2019-01-04T21:14:32.665Z,57.33
2019-01-04T21:17:21.114Z,53.60
2019-01-04T21:20:09.281Z,64.47
2019-01-04T21:22:39.734Z,53.23
2019-01-04T21:25:10.041Z,54.03
2019-01-04T21:27:40.389Z,57.67
2019-01-04T21:30:25.652Z,59.50
2019-01-04T21:33:10.982Z,61.90
2019-01-04T21:35:43.600Z,60.63
2019-01-04T21:38:29.743Z,63.23
2019-01-04T21:41:16.730Z,56.90
2019-01-04T21:43:50.208Z,64.30
2019-01-04T21:46:20.646Z,62.50
2019-01-04T21:49:07.290Z,61.53
2019-01-04T21:51:55.805Z,62.90
2019-01-04T21:54:25.999Z,64.53
2019-01-04T21:57:12.464Z,61.60
2019-01-04T21:59:51.791Z,60.00
2019-01-04T22:02:36.918Z,68.60
2019-01-04T22:05:13.769Z,63.40
2019-01-04T22:07:46.742Z,62.43
2019-01-04T22:10:17.508Z,60.13
2019-01-04T22:12:50.728Z,59.23
2019-01-04T22:15:27.131Z,62.90
2019-01-04T22:17:57.755Z,60.60
2019-01-04T22:20:44.289Z,60.27
2019-01-04T22:23:16.827Z,63.17
2019-01-04T22:25:49.839Z,62.83
2019-01-04T22:28:20.251Z,65.20
2019-01-04T22:30:59.746Z,62.40
2019-01-04T22:33:36.519Z,67.10
2019-01-04T22:36:23.159Z,63.37
2019-01-04T22:38:56.015Z,62.23
2019-01-04T22:41:41.281Z,60.13
2019-01-04T22:44:11.520Z,54.20
2019-01-04T22:46:47.266Z,51.80
2019-01-04T22:49:17.699Z,52.97
2019-01-04T22:51:51.208Z,51.87
2019-01-04T22:54:27.373Z,50.13
2019-01-04T22:57:04.110Z,48.93
2019-01-04T22:59:50.309Z,59.90
2019-01-04T23:02:20.749Z,50.87
2019-01-04T23:04:53.755Z,53.10
2019-01-04T23:07:23.848Z,44.70
2019-01-04T23:09:56.770Z,46.30
2019-01-04T23:12:29.479Z,40.83
2019-01-04T23:15:11.784Z,37.50
2019-01-04T23:17:58.596Z,41.87
2019-01-04T23:20:37.830Z,38.70
2019-01-04T23:23:26.169Z,42.00
2019-01-04T23:26:12.678Z,34.57
2019-01-04T23:28:58.839Z,36.10
2019-01-04T23:31:38.068Z,38.13
2019-01-04T23:34:20.804Z,32.13
2019-01-04T23:36:51.243Z,34.80
2019-01-04T23:39:23.978Z,36.20
2019-01-04T23:42:12.566Z,34.53
2019-01-04T23:44:45.217Z,30.10
2019-01-04T23:47:31.332Z,31.90
2019-01-04T23:50:01.443Z,32.90
2019-01-04T23:52:49.964Z,37.63
2019-01-04T23:55:23.027Z,28.50
2019-01-04T23:58:08.057Z,29.10
